Time;durP1;ratioP1;P1;durP2;ratioP2;P2;SDS_P1;SDS_P2;PMS_P1;PMS_P2;Temp;Humidity;BMP_temperature;BMP_pressure;BME280_temperature;BME280_humidity;BME280_pressure;Samples;Min_cycle;Max_cycle;Signal;HPM_P1;HPM_P2
2022/11/20 00:01:38;;;;;;;37.60;21.20;;;;;;;1.03;100.00;101266.84;107645;1257;74165;-69
2022/11/20 00:04:11;;;;;;;36.20;20.40;;;;;;;1.01;100.00;101266.20;107485;1259;70662;-68
2022/11/20 00:06:40;;;;;;;37.50;21.30;;;;;;;0.97;100.00;101270.23;107496;1273;69966;-68
2022/11/20 00:09:10;;;;;;;42.50;22.00;;;;;;;1.02;100.00;101280.94;107450;1266;73562;-69
2022/11/20 00:11:38;;;;;;;37.30;21.60;;;;;;;0.95;100.00;101283.84;107460;1265;62258;-69
2022/11/20 00:14:09;;;;;;;34.70;20.80;;;;;;;1.08;100.00;101290.91;107478;1270;60113;-69
2022/11/20 00:16:38;;;;;;;34.00;20.00;;;;;;;1.04;100.00;101294.09;107523;1267;72420;-68
2022/11/20 00:19:06;;;;;;;35.60;20.30;;;;;;;0.88;100.00;101298.59;107777;1261;71807;-68
2022/11/20 00:21:35;;;;;;;34.40;19.30;;;;;;;0.83;100.00;101304.88;107611;1261;68418;-68
2022/11/20 00:24:04;;;;;;;34.00;19.50;;;;;;;0.88;100.00;101303.71;107667;1264;72443;-67
2022/11/20 00:26:33;;;;;;;34.50;19.40;;;;;;;0.80;100.00;101310.94;107676;1265;61808;-67
2022/11/20 00:29:03;;;;;;;33.70;19.60;;;;;;;0.73;100.00;101311.60;107636;1265;60718;-67
2022/11/20 00:31:33;;;;;;;34.30;20.10;;;;;;;0.74;100.00;101312.77;107554;1267;73963;-67
2022/11/20 00:34:02;;;;;;;34.30;17.30;;;;;;;0.70;100.00;101309.27;107799;1261;71813;-67
2022/11/20 00:36:33;;;;;;;31.00;17.10;;;;;;;0.64;100.00;101307.69;107582;1267;70746;-67
2022/11/20 00:39:02;;;;;;;27.70;14.60;;;;;;;0.51;100.00;101306.09;107590;1263;72126;-68
2022/11/20 00:41:31;;;;;;;33.00;18.20;;;;;;;0.47;100.00;101303.42;107667;1260;59436;-68
2022/11/20 00:44:00;;;;;;;31.70;18.30;;;;;;;0.43;100.00;101305.05;107673;1265;60186;-67
2022/11/20 00:46:28;;;;;;;29.40;18.20;;;;;;;0.49;100.00;101300.11;107640;1267;72576;-68
2022/11/20 00:48:57;;;;;;;31.90;17.70;;;;;;;0.39;100.00;101294.69;107516;1265;71494;-68
2022/11/20 00:51:27;;;;;;;31.80;17.50;;;;;;;0.30;100.00;101289.05;107423;1260;69904;-67
2022/11/20 00:53:59;;;;;;;29.10;17.50;;;;;;;0.24;100.00;101282.14;107560;1266;73103;-68
2022/11/20 00:56:28;;;;;;;26.30;14.20;;;;;;;0.27;100.00;101288.42;107282;1270;60130;-67
2022/11/20 00:59:00;;;;;;;34.90;18.30;;;;;;;0.27;100.00;101291.34;107593;1258;58984;-67
2022/11/20 01:01:29;;;;;;;31.50;17.80;;;;;;;0.25;100.00;101284.02;107537;1266;62961;-68
2022/11/20 01:04:00;;;;;;;31.80;18.30;;;;;;;0.20;100.00;101275.71;107597;1261;72155;-68
2022/11/20 01:06:33;;;;;;;31.60;18.70;;;;;;;0.24;100.00;101272.36;107570;1270;70107;-68
2022/11/20 01:09:12;;;;;;;28.50;16.60;;;;;;;0.23;100.00;101273.24;107680;1270;73503;-68
2022/11/20 01:11:44;;;;;;;31.30;16.80;;;;;;;0.23;100.00;101270.16;107680;1269;62375;-68
2022/11/20 01:14:17;;;;;;;30.50;17.40;;;;;;;0.18;100.00;101266.84;107633;1263;58687;-68
2022/11/20 01:16:49;;;;;;;31.80;17.60;;;;;;;0.21;100.00;101262.68;107576;1265;73541;-69
2022/11/20 01:19:22;;;;;;;32.60;18.20;;;;;;;0.24;100.00;101249.41;107799;1257;70033;-69
2022/11/20 01:21:54;;;;;;;26.40;15.50;;;;;;;0.19;100.00;101242.32;107618;1263;67647;-69
2022/11/20 01:24:23;;;;;;;25.00;14.40;;;;;;;0.12;100.00;101237.50;107595;1266;73850;-68
2022/11/20 01:26:52;;;;;;;24.50;14.30;;;;;;;0.11;100.00;101229.48;107628;1269;62170;-69
2022/11/20 01:29:24;;;;;;;25.80;15.70;;;;;;;0.11;100.00;101226.21;107727;1260;60827;-68
2022/11/20 01:31:53;;;;;;;23.80;14.80;;;;;;;0.11;100.00;101226.04;107596;1258;71428;-69
2022/11/20 01:34:22;;;;;;;27.00;16.20;;;;;;;0.13;100.00;101218.48;107812;1257;71422;-68
2022/11/20 01:36:52;;;;;;;24.30;14.50;;;;;;;0.18;100.00;101214.08;107652;1266;68425;-68
2022/11/20 01:39:26;;;;;;;21.90;13.70;;;;;;;0.14;100.00;101210.93;107673;1269;71878;-70
2022/11/20 01:44:51;;;;;;;22.50;13.90;;;;;;;0.21;100.00;101198.27;107718;1261;60107;-70
2022/11/20 01:47:44;;;;;;;23.00;13.70;;;;;;;0.20;100.00;101189.36;107605;1266;73404;-68
2022/11/20 01:50:32;;;;;;;19.30;11.00;;;;;;;0.30;100.00;101179.56;107770;1258;69935;-70
2022/11/20 01:53:08;;;;;;;21.40;12.60;;;;;;;0.24;100.00;101176.77;107613;1266;68768;-69
2022/11/20 01:55:45;;;;;;;19.00;12.90;;;;;;;0.22;100.00;101176.84;107666;1273;73151;-70
2022/11/20 01:58:14;;;;;;;22.50;13.20;;;;;;;0.17;100.00;101173.16;107577;1261;61139;-70
2022/11/20 02:00:43;;;;;;;20.80;13.00;;;;;;;0.12;100.00;101167.27;107611;1266;61224;-69
2022/11/20 02:03:16;;;;;;;23.60;14.10;;;;;;;0.12;100.00;101168.13;107601;1270;72772;-69
2022/11/20 02:06:01;;;;;;;19.30;11.90;;;;;;;0.22;100.00;101170.30;107830;1260;70854;-68
2022/11/20 02:08:31;;;;;;;19.80;11.90;;;;;;;0.29;100.00;101164.52;107683;1265;69363;-70
2022/11/20 02:10:59;;;;;;;19.90;12.10;;;;;;;0.23;100.00;101160.01;107643;1256;72268;-68
2022/11/20 02:13:45;;;;;;;16.80;9.50;;;;;;;0.23;100.00;101160.36;107684;1264;62372;-67
2022/11/20 02:16:24;;;;;;;19.70;11.30;;;;;;;0.22;100.00;101162.61;107652;1260;60971;-67
2022/11/20 02:18:55;;;;;;;19.40;11.90;;;;;;;0.22;100.00;101163.80;107625;1260;73262;-67
2022/11/20 02:21:42;;;;;;;19.80;11.50;;;;;;;0.22;100.00;101169.27;107822;1256;69682;-67
2022/11/20 02:24:16;;;;;;;18.30;11.20;;;;;;;0.34;100.00;101166.44;107679;1260;59733;-71
2022/11/20 02:26:59;;;;;;;19.70;11.70;;;;;;;0.40;100.00;101163.22;107673;1264;63245;-67
2022/11/20 02:30:01;;;;;;;20.10;11.70;;;;;;;0.41;100.00;101161.32;107650;1266;61074;-67
2022/11/20 02:32:35;;;;;;;15.80;9.70;;;;;;;0.40;100.00;101157.08;107595;1261;57640;-66
2022/11/20 02:35:07;;;;;;;;;;;;;;;0.37;100.00;101159.70;107654;1271;70324;-69
2022/11/20 02:37:40;;;;;;;11.90;8.20;;;;;;;0.15;100.00;101166.02;107783;1258;69395;-68
2022/11/20 02:40:09;;;;;;;16.30;9.70;;;;;;;0.23;100.00;101167.55;107640;1266;69457;-68
2022/11/20 02:42:38;;;;;;;12.40;8.30;;;;;;;0.38;100.00;101164.66;107646;1260;71381;-70
2022/11/20 02:45:08;;;;;;;13.40;8.30;;;;;;;0.55;100.00;101167.48;107656;1260;61879;-68
2022/11/20 02:47:37;;;;;;;12.30;8.10;;;;;;;0.51;100.00;101163.50;107707;1266;60683;-69
2022/11/20 02:50:06;;;;;;;10.70;6.90;;;;;;;0.37;100.00;101163.48;107512;1265;73926;-68
2022/11/20 02:52:35;;;;;;;11.40;6.90;;;;;;;0.29;100.00;101160.58;107796;1270;72834;-67
2022/11/20 02:55:04;;;;;;;9.70;6.20;;;;;;;0.39;100.00;101152.96;107601;1266;70719;-68
2022/11/20 02:57:33;;;;;;;9.30;6.10;;;;;;;0.39;100.00;101145.08;107662;1266;72590;-68
2022/11/20 03:00:04;;;;;;;8.80;6.20;;;;;;;0.40;100.00;101143.86;107710;1264;60378;-69
2022/11/20 03:02:33;;;;;;;10.10;6.20;;;;;;;0.42;100.00;101137.15;107598;1262;61164;-67
2022/11/20 03:05:02;;;;;;;12.40;6.20;;;;;;;0.27;100.00;101136.45;107698;1265;72628;-67
2022/11/20 03:07:31;;;;;;;11.80;7.10;;;;;;;0.47;100.00;101129.13;107719;1261;68352;-68
2022/11/20 03:10:00;;;;;;;9.60;6.10;;;;;;;0.57;100.00;101122.55;107710;1266;70013;-68
2022/11/20 03:12:28;;;;;;;10.10;6.50;;;;;;;0.36;100.00;101113.81;107670;1260;74151;-69
2022/11/20 03:14:57;;;;;;;10.70;6.70;;;;;;;0.35;100.00;101112.29;107695;1261;60067;-68
2022/11/20 03:17:26;;;;;;;10.00;6.90;;;;;;;0.36;100.00;101113.45;107632;1265;61559;-68
2022/11/20 03:19:54;;;;;;;11.20;6.60;;;;;;;0.45;100.00;101108.96;107707;1264;71978;-68
2022/11/20 03:22:23;;;;;;;12.00;7.60;;;;;;;0.42;100.00;101107.83;107826;1260;69573;-68
2022/11/20 03:24:51;;;;;;;12.80;7.40;;;;;;;0.50;100.00;101105.73;107704;1267;69450;-70
2022/11/20 03:27:20;;;;;;;12.20;7.70;;;;;;;0.61;100.00;101099.48;107699;1266;72317;-69
2022/11/20 03:29:49;;;;;;;14.90;7.90;;;;;;;0.67;100.00;101090.59;107627;1261;60428;-70
2022/11/20 03:32:17;;;;;;;16.60;11.30;;;;;;;0.68;100.00;101081.80;107711;1262;61017;-69
2022/11/20 03:34:46;;;;;;;13.20;8.80;;;;;;;0.67;100.00;101079.61;107701;1270;71459;-69
2022/11/20 03:37:15;;;;;;;12.10;8.60;;;;;;;0.66;100.00;101072.61;107803;1255;68490;-69
2022/11/20 03:39:43;;;;;;;13.10;7.90;;;;;;;0.64;100.00;101061.88;107704;1264;70515;-69
2022/11/20 03:44:59;;;;;;;15.70;9.40;;;;;;;0.64;100.00;101056.56;107699;1267;57028;-69
2022/11/20 03:47:28;;;;;;;13.50;8.70;;;;;;;0.74;100.00;101055.43;107688;1256;60257;-67
2022/11/20 03:49:57;;;;;;;13.90;8.50;;;;;;;0.70;100.00;101053.48;107711;1263;73901;-68
2022/11/20 03:52:25;;;;;;;12.60;8.20;;;;;;;0.64;100.00;101046.45;107790;1261;70862;-68
2022/11/20 03:54:54;;;;;;;13.30;8.50;;;;;;;0.64;100.00;101036.49;107744;1256;69616;-67
2022/11/20 03:57:22;;;;;;;12.20;7.40;;;;;;;0.58;100.00;101030.33;107654;1260;74185;-67
2022/11/20 03:59:51;;;;;;;12.50;8.20;;;;;;;0.55;100.00;101013.25;107641;1265;57116;-66
2022/11/20 04:02:20;;;;;;;13.90;8.50;;;;;;;0.53;100.00;101011.77;107719;1260;58995;-68
2022/11/20 04:04:48;;;;;;;15.40;9.60;;;;;;;0.55;100.00;101012.39;107649;1258;72912;-66
2022/11/20 04:07:17;;;;;;;15.40;9.70;;;;;;;0.56;100.00;101017.48;107676;1264;71200;-68
2022/11/20 04:09:46;;;;;;;17.10;10.40;;;;;;;0.70;100.00;101012.00;107716;1264;68652;-68
2022/11/20 04:12:14;;;;;;;19.40;10.70;;;;;;;0.77;100.00;101002.37;107710;1260;72921;-68
2022/11/20 04:14:43;;;;;;;19.10;11.30;;;;;;;0.79;100.00;100996.48;107704;1257;59859;-68
2022/11/20 04:17:12;;;;;;;18.20;10.30;;;;;;;0.73;100.00;100993.23;107728;1266;60112;-69
2022/11/20 04:19:40;;;;;;;17.70;9.80;;;;;;;0.67;100.00;100991.34;107679;1260;72883;-68
2022/11/20 04:22:11;;;;;;;17.30;10.40;;;;;;;0.57;100.00;100988.00;107805;1264;62046;-69
2022/11/20 04:24:39;;;;;;;20.80;11.70;;;;;;;0.73;100.00;100986.18;107704;1260;70524;-68
2022/11/20 04:27:08;;;;;;;17.10;11.00;;;;;;;0.86;100.00;100981.04;107667;1264;72178;-69
2022/11/20 04:29:37;;;;;;;19.80;10.90;;;;;;;0.93;100.00;100974.16;107716;1260;59666;-70
2022/11/20 04:32:05;;;;;;;17.00;10.10;;;;;;;0.80;100.00;100973.66;107598;1261;61249;-68
2022/11/20 04:34:34;;;;;;;17.00;10.70;;;;;;;0.68;100.00;100969.02;107652;1269;72076;-69
2022/11/20 04:37:03;;;;;;;15.80;10.50;;;;;;;0.67;100.00;100967.17;107787;1261;70216;-67
2022/11/20 04:39:32;;;;;;;20.90;10.50;;;;;;;0.65;100.00;100971.48;107581;1267;69585;-69
2022/11/20 04:44:47;;;;;;;17.70;10.60;;;;;;;0.64;100.00;100955.42;107794;1261;57669;-68
2022/11/20 04:47:16;;;;;;;20.90;11.60;;;;;;;0.65;100.00;100957.45;107695;1266;61010;-68
2022/11/20 04:49:44;;;;;;;20.60;10.40;;;;;;;0.60;100.00;100969.57;107655;1269;73620;-68
2022/11/20 04:52:14;;;;;;;16.20;10.40;;;;;;;0.61;100.00;100966.64;107827;1264;69590;-69
2022/11/20 04:54:42;;;;;;;15.10;9.80;;;;;;;0.55;100.00;100968.33;107623;1270;68069;-68
2022/11/20 04:57:13;;;;;;;15.70;9.40;;;;;;;0.63;100.00;100966.06;107727;1260;70860;-69
2022/11/20 04:59:42;;;;;;;15.40;9.90;;;;;;;0.67;100.00;100961.84;107714;1260;59699;-69
2022/11/20 05:02:11;;;;;;;18.90;11.20;;;;;;;0.72;100.00;100959.31;107619;1260;60401;-69
2022/11/20 05:04:40;;;;;;;19.80;11.60;;;;;;;0.84;100.00;100957.95;107714;1255;70670;-69
2022/11/20 05:07:09;;;;;;;18.30;11.80;;;;;;;0.81;100.00;100950.14;107784;1261;70413;-68
2022/11/20 05:09:37;;;;;;;19.70;11.50;;;;;;;0.99;100.00;100947.05;107691;1257;70988;-69
2022/11/20 05:12:08;;;;;;;19.40;11.60;;;;;;;1.00;100.00;100949.09;107710;1261;72245;-69
2022/11/20 05:14:37;;;;;;;20.30;12.40;;;;;;;1.05;100.00;100944.14;107626;1270;60446;-69
2022/11/20 05:17:09;;;;;;;19.20;11.80;;;;;;;1.15;100.00;100941.10;107669;1269;57083;-68
2022/11/20 05:19:38;;;;;;;21.20;12.20;;;;;;;1.25;100.00;100938.89;107605;1262;72504;-69
2022/11/20 05:22:06;;;;;;;19.50;11.70;;;;;;;1.28;100.00;100933.86;107891;1261;72382;-73
2022/11/20 05:24:35;;;;;;;17.10;11.30;;;;;;;1.20;100.00;100921.57;107752;1266;60332;-68
2022/11/20 05:27:04;;;;;;;16.40;10.60;;;;;;;1.06;100.00;100910.66;107708;1264;73821;-69
2022/11/20 05:29:32;;;;;;;19.60;11.60;;;;;;;0.92;100.00;100908.84;107739;1266;61719;-69
2022/11/20 05:32:01;;;;;;;18.90;12.30;;;;;;;0.96;100.00;100907.69;107649;1260;59214;-68
2022/11/20 05:34:30;;;;;;;19.10;11.60;;;;;;;0.99;100.00;100897.66;107693;1263;71569;-71
2022/11/20 05:36:59;;;;;;;42.20;30.00;;;;;;;1.04;100.00;100899.39;107936;1265;70432;-68
2022/11/20 05:39:28;;;;;;;23.80;14.90;;;;;;;0.96;100.00;100911.80;107716;1263;70902;-69
2022/11/20 05:44:43;;;;;;;16.60;10.60;;;;;;;1.00;100.00;100923.36;107788;1268;57798;-68
2022/11/20 05:47:12;;;;;;;18.70;12.40;;;;;;;1.10;100.00;100930.96;107807;1261;58631;-70
2022/11/20 05:49:40;;;;;;;22.00;12.80;;;;;;;1.21;100.00;100936.97;107744;1270;72672;-69
2022/11/20 05:52:09;;;;;;;18.30;11.30;;;;;;;1.23;100.00;100931.42;107928;1270;61902;-69
2022/11/20 05:54:38;;;;;;;19.00;11.80;;;;;;;1.20;100.00;100915.21;107845;1263;68613;-70
2022/11/20 05:57:06;;;;;;;18.60;11.30;;;;;;;1.19;100.00;100896.05;107686;1265;72071;-67
2022/11/20 05:59:35;;;;;;;18.70;12.70;;;;;;;1.12;100.00;100882.02;107803;1264;60109;-71
2022/11/20 06:02:04;;;;;;;20.00;13.20;;;;;;;1.11;100.00;100869.01;107742;1256;61640;-68
2022/11/20 06:04:34;;;;;;;19.00;12.50;;;;;;;1.15;100.00;100851.89;107820;1260;71966;-68
2022/11/20 06:07:06;;;;;;;19.70;13.20;;;;;;;1.12;100.00;100843.09;107873;1261;72042;-65
2022/11/20 06:09:34;;;;;;;17.90;10.50;;;;;;;1.02;100.00;100843.37;107647;1262;70681;-69
2022/11/20 06:12:04;;;;;;;16.10;11.80;;;;;;;0.97;100.00;100853.13;107787;1260;72300;-68
2022/11/20 06:14:33;;;;;;;15.70;10.70;;;;;;;1.09;100.00;100867.52;107665;1258;60489;-69
2022/11/20 06:17:01;;;;;;;17.90;10.90;;;;;;;1.05;100.00;100878.09;107762;1260;61135;-69
2022/11/20 06:19:30;;;;;;;23.10;14.10;;;;;;;1.06;100.00;100893.31;107761;1263;72139;-76
2022/11/20 06:21:59;;;;;;;17.70;11.20;;;;;;;1.10;100.00;100912.42;107921;1256;71162;-71
2022/11/20 06:24:27;;;;;;;31.60;18.00;;;;;;;1.07;100.00;100915.27;107753;1255;70378;-70
2022/11/20 06:26:56;;;;;;;20.70;13.10;;;;;;;0.95;100.00;100914.27;107757;1255;72151;-70
2022/11/20 06:29:25;;;;;;;23.50;14.10;;;;;;;0.92;100.00;100911.26;107782;1261;62004;-67
2022/11/20 06:32:01;;;;;;;20.60;12.20;;;;;;;0.89;100.00;100911.33;107813;1269;60721;-70
2022/11/20 06:34:29;;;;;;;21.00;12.30;;;;;;;0.98;100.00;100902.48;107697;1261;73376;-71
2022/11/20 06:36:58;;;;;;;18.00;12.30;;;;;;;1.08;100.00;100892.10;107806;1260;70090;-72
2022/11/20 06:39:27;;;;;;;21.80;14.10;;;;;;;1.06;100.00;100894.87;107794;1256;68425;-71
2022/11/20 06:41:56;;;;;;;18.40;11.40;;;;;;;1.10;100.00;100894.08;107718;1260;73198;-70
2022/11/20 06:44:26;;;;;;;18.90;11.80;;;;;;;1.14;100.00;100887.26;107627;1260;62349;-71
2022/11/20 06:46:55;;;;;;;16.00;10.20;;;;;;;1.21;100.00;100871.43;107928;1270;60835;-68
2022/11/20 06:49:25;;;;;;;20.20;11.90;;;;;;;1.23;100.00;100869.46;107668;1260;72652;-69
2022/11/20 06:51:53;;;;;;;13.90;9.20;;;;;;;1.30;100.00;100868.91;107807;1260;63407;-70
2022/11/20 06:54:22;;;;;;;16.40;9.80;;;;;;;1.30;100.00;100863.42;107775;1259;59926;-71
2022/11/20 06:56:51;;;;;;;14.60;9.40;;;;;;;1.29;100.00;100860.17;107699;1256;72955;-70
2022/11/20 06:59:19;;;;;;;18.70;10.80;;;;;;;1.36;100.00;100857.74;107710;1269;62472;-70
2022/11/20 07:01:48;;;;;;;16.70;10.20;;;;;;;1.37;100.00;100854.27;107729;1270;61675;-69
2022/11/20 07:04:17;;;;;;;20.30;11.80;;;;;;;1.37;100.00;100852.23;107734;1259;63472;-69
2022/11/20 07:06:46;;;;;;;16.50;7.50;;;;;;;1.22;100.00;100845.48;107781;1261;72145;-70
2022/11/20 07:09:14;;;;;;;17.80;10.40;;;;;;;1.06;100.00;100849.76;107738;1263;69119;-70
2022/11/20 07:11:43;;;;;;;20.00;11.60;;;;;;;0.88;100.00;100859.40;107734;1259;63706;-69
2022/11/20 07:14:12;;;;;;;23.50;13.60;;;;;;;0.76;100.00;100860.27;107791;1260;60649;-71
2022/11/20 07:16:40;;;;;;;26.20;14.70;;;;;;;0.67;100.00;100854.71;107724;1264;60251;-66
2022/11/20 07:19:09;;;;;;;28.60;15.70;;;;;;;0.72;100.00;100853.86;107641;1262;71475;-65
2022/11/20 07:21:37;;;;;;;28.10;15.20;;;;;;;0.87;100.00;100855.67;107857;1264;72149;-67
2022/11/20 07:24:06;;;;;;;19.60;12.70;;;;;;;0.90;100.00;100853.34;107758;1259;68916;-67
2022/11/20 07:26:36;;;;;;;21.80;13.40;;;;;;;0.91;100.00;100847.99;107639;1260;71877;-67
2022/11/20 07:29:05;;;;;;;24.10;14.60;;;;;;;0.92;100.00;100830.65;107718;1263;60405;-65
2022/11/20 07:31:34;;;;;;;25.50;16.60;;;;;;;0.90;100.00;100837.04;107771;1259;59473;-65
2022/11/20 07:34:02;;;;;;;30.40;17.10;;;;;;;0.94;100.00;100894.38;107598;1256;73455;-66
2022/11/20 07:36:31;;;;;;;23.90;13.80;;;;;;;0.87;100.00;100920.30;107625;1264;69328;-67
2022/11/20 07:39:00;;;;;;;21.10;12.60;;;;;;;0.81;100.00;100909.34;107605;1264;68515;-65
2022/11/20 07:41:29;;;;;;;31.60;17.30;;;;;;;0.74;100.00;100888.61;107395;1261;73503;-66
2022/11/20 07:43:58;;;;;;;30.20;15.60;;;;;;;0.93;100.00;100859.08;107516;1265;61001;-65
2022/11/20 07:46:26;;;;;;;22.10;13.70;;;;;;;1.05;100.00;100835.21;107611;1256;60722;-67
2022/11/20 07:48:55;;;;;;;25.70;14.30;;;;;;;1.09;100.00;100822.91;107618;1263;71983;-66
2022/11/20 07:51:25;;;;;;;25.50;15.20;;;;;;;1.15;100.00;100833.52;107735;1260;69739;-71
2022/11/20 07:53:54;;;;;;;36.70;19.70;;;;;;;1.25;100.00;100813.48;107759;1256;58945;-69
2022/11/20 07:56:23;;;;;;;26.10;14.40;;;;;;;1.35;100.00;100807.15;107666;1260;73064;-68
2022/11/20 07:58:51;;;;;;;22.20;13.70;;;;;;;1.23;100.00;100820.75;107773;1260;60085;-74
2022/11/20 08:01:20;;;;;;;46.70;22.90;;;;;;;1.33;100.00;100817.02;107805;1259;59753;-73
2022/11/20 08:03:49;;;;;;;28.00;14.00;;;;;;;1.37;100.00;100828.91;107736;1266;73977;-70
2022/11/20 08:06:19;;;;;;;166.50;85.00;;;;;;;1.37;100.00;100830.09;107857;1261;71648;-70
2022/11/20 08:08:47;;;;;;;30.20;17.90;;;;;;;1.32;100.00;100853.92;107731;1263;62595;-69
2022/11/20 08:14:12;;;;;;;31.20;16.70;;;;;;;1.15;100.00;100843.30;107777;1264;61563;-69
2022/11/20 08:16:47;;;;;;;28.80;16.40;;;;;;;1.05;100.00;100826.30;107709;1260;57603;-69
2022/11/20 08:19:18;;;;;;;40.50;26.20;;;;;;;1.09;100.00;100810.05;107763;1264;63217;-71
2022/11/20 08:21:47;;;;;;;39.50;25.80;;;;;;;1.20;100.00;100809.54;107553;1256;71292;-69
2022/11/20 08:24:16;;;;;;;32.60;19.70;;;;;;;1.23;100.00;100802.75;107697;1269;68040;-70
2022/11/20 08:26:45;;;;;;;29.10;18.50;;;;;;;1.34;100.00;100791.42;107673;1260;73787;-70
2022/11/20 08:29:13;;;;;;;29.20;19.40;;;;;;;1.45;100.00;100785.73;107700;1264;60088;-70
2022/11/20 08:31:42;;;;;;;29.80;18.10;;;;;;;1.55;100.00;100786.41;107712;1264;60056;-71
2022/11/20 08:34:30;;;;;;;34.90;20.00;;;;;;;1.66;100.00;100784.16;107707;1269;74874;-70
2022/11/20 08:37:02;;;;;;;37.50;21.80;;;;;;;1.73;100.00;100775.67;107817;1261;71945;-70
2022/11/20 08:39:31;;;;;;;32.40;19.30;;;;;;;1.76;100.00;100762.85;107709;1255;70066;-71
2022/11/20 08:41:59;;;;;;;31.80;18.60;;;;;;;1.71;100.00;100776.27;107822;1257;74034;-69
2022/11/20 08:44:28;;;;;;;72.00;36.60;;;;;;;1.71;100.00;100787.40;107828;1269;60820;-71
2022/11/20 08:46:56;;;;;;;28.70;17.20;;;;;;;1.76;100.00;100796.52;107829;1270;60295;-69
2022/11/20 08:49:25;;;;;;;31.10;18.10;;;;;;;1.80;100.00;100801.85;107828;1259;71976;-71
2022/11/20 08:51:55;;;;;;;36.00;21.70;;;;;;;1.77;100.00;100802.14;107910;1260;70228;-70
2022/11/20 08:54:23;;;;;;;28.90;16.70;;;;;;;1.66;100.00;100802.00;107724;1270;69840;-70
2022/11/20 08:56:52;;;;;;;33.50;18.50;;;;;;;1.57;100.00;100810.91;107641;1269;70663;-70
2022/11/20 08:59:21;;;;;;;37.80;19.90;;;;;;;1.47;100.00;100810.02;107766;1265;61079;-75
2022/11/20 09:02:09;;;;;;;30.40;18.40;;;;;;;1.45;100.00;100803.55;107650;1261;57702;-71
2022/11/20 09:04:38;;;;;;;31.60;18.70;;;;;;;1.43;100.00;100795.06;107698;1257;62826;-70
2022/11/20 09:07:06;;;;;;;43.10;22.50;;;;;;;1.42;100.00;100789.94;107957;1262;72141;-71
2022/11/20 09:09:36;;;;;;;26.80;14.90;;;;;;;1.49;100.00;100793.33;107837;1269;60031;-70
2022/11/20 09:12:05;;;;;;;17.80;11.20;;;;;;;1.53;100.00;100790.25;107833;1260;73865;-71
2022/11/20 09:14:33;;;;;;;23.90;14.60;;;;;;;1.36;100.00;100786.52;107703;1270;62265;-69
2022/11/20 09:17:02;;;;;;;22.70;13.10;;;;;;;1.23;100.00;100787.48;107756;1263;60106;-69
2022/11/20 09:19:31;;;;;;;20.50;12.00;;;;;;;1.13;100.00;100785.21;107698;1270;70749;-67
2022/11/20 09:22:08;;;;;;;24.10;13.80;;;;;;;1.04;100.00;100785.35;107858;1265;61468;-71
2022/11/20 09:24:37;;;;;;;21.40;12.90;;;;;;;0.95;100.00;100778.09;107707;1264;68635;-71
2022/11/20 09:27:05;;;;;;;26.60;13.90;;;;;;;0.86;100.00;100776.98;107528;1270;73059;-71
2022/11/20 09:29:34;;;;;;;25.50;15.20;;;;;;;0.82;100.00;100777.12;107675;1260;60652;-69
2022/11/20 09:32:03;;;;;;;38.10;19.90;;;;;;;0.76;100.00;100763.91;107705;1268;58813;-69
2022/11/20 09:34:32;;;;;;;47.10;23.90;;;;;;;0.88;100.00;100760.64;107697;1265;69786;-70
2022/11/20 09:37:01;;;;;;;51.70;24.90;;;;;;;1.01;100.00;100748.89;107818;1261;70786;-68
2022/11/20 09:39:38;;;;;;;52.00;27.00;;;;;;;1.20;100.00;100739.86;107664;1261;70859;-70
2022/11/20 09:42:35;;;;;;;52.50;27.80;;;;;;;1.37;100.00;100747.39;107655;1263;71688;-70
2022/11/20 09:45:19;;;;;;;56.30;32.20;;;;;;;1.61;100.00;100727.33;107670;1260;60069;-70
2022/11/20 09:48:18;;;;;;;58.20;30.80;;;;;;;1.71;100.00;100746.20;107740;1269;60330;-69
2022/11/20 09:51:05;;;;;;;49.10;27.80;;;;;;;1.80;100.00;100748.28;107745;1260;73245;-72
2022/11/20 09:54:04;;;;;;;40.80;25.10;;;;;;;1.90;100.00;100756.85;107815;1263;72084;-72
2022/11/20 09:56:39;;;;;;;35.30;19.60;;;;;;;1.87;100.00;100756.45;107775;1265;59629;-71
2022/11/20 09:59:35;;;;;;;45.90;28.00;;;;;;;1.85;100.00;100757.88;107610;1266;62387;-71
2022/11/20 10:02:22;;;;;;;27.60;17.40;;;;;;;1.70;100.00;100756.19;107672;1269;61871;-70
2022/11/20 10:05:10;;;;;;;34.90;20.70;;;;;;;1.73;100.00;100749.40;107865;1257;57130;-71
2022/11/20 10:08:00;;;;;;;36.50;21.10;;;;;;;1.80;100.00;100741.94;107649;1255;72516;-71
2022/11/20 10:10:38;;;;;;;47.10;25.70;;;;;;;1.83;100.00;100740.12;107646;1257;72509;-70
2022/11/20 10:13:45;;;;;;;50.20;24.90;;;;;;;1.93;100.00;100748.50;107729;1269;60306;-69
2022/11/20 10:16:23;;;;;;;44.40;24.10;;;;;;;1.88;100.00;100728.77;107667;1270;74033;-70
2022/11/20 10:19:35;;;;;;;34.20;18.80;;;;;;;1.61;100.00;100704.50;107719;1263;61498;-71
2022/11/20 10:22:19;;;;;;;42.40;22.70;;;;;;;1.61;100.00;100723.90;107689;1257;57712;-72
2022/11/20 10:25:18;;;;;;;44.40;23.70;;;;;;;1.76;100.00;100724.05;107753;1260;71122;-72
2022/11/20 10:28:27;;;;;;;44.10;23.90;;;;;;;1.82;100.00;100718.52;107817;1261;71158;-71
2022/11/20 10:31:02;;;;;;;38.60;22.80;;;;;;;1.87;100.00;100701.48;107499;1259;315654;-70
2022/11/20 10:33:43;;;;;;;39.00;21.50;;;;;;;1.87;100.00;100692.05;107628;1263;63216;-71
2022/11/20 10:36:50;;;;;;;39.50;22.00;;;;;;;1.93;100.00;100698.36;107629;1266;62030;-72
2022/11/20 10:39:59;;;;;;;40.60;21.40;;;;;;;1.89;100.00;100698.84;107672;1266;57155;-73
2022/11/20 10:43:13;;;;;;;27.90;15.80;;;;;;;1.83;100.00;100688.93;107564;1266;73422;-72
2022/11/20 10:46:04;;;;;;;27.70;15.40;;;;;;;1.53;100.00;100662.88;107665;1255;72766;-71
2022/11/20 10:48:33;;;;;;;27.10;15.80;;;;;;;1.59;100.00;100674.55;107400;1260;69445;-71
2022/11/20 10:51:39;;;;;;;34.80;18.20;;;;;;;1.57;100.00;100664.48;107569;1260;70937;-72
2022/11/20 10:54:54;;;;;;;29.90;17.50;;;;;;;1.72;100.00;100642.14;107567;1259;61127;-70
2022/11/20 10:58:17;;;;;;;39.60;20.60;;;;;;;1.60;100.00;100661.11;107033;1272;57466;-71
2022/11/20 11:00:46;;;;;;;33.60;16.70;;;;;;;1.66;100.00;100693.67;106840;1266;73447;-71
2022/11/20 11:03:32;;;;;;;33.10;17.20;;;;;;;1.68;100.00;100710.27;107625;1261;61982;-73
2022/11/20 11:06:17;;;;;;;34.10;18.80;;;;;;;1.69;100.00;100706.95;107521;1267;58949;-71
2022/11/20 11:08:49;;;;;;;46.20;21.60;;;;;;;1.65;100.00;100701.95;107582;1260;62275;-71
2022/11/20 11:11:30;;;;;;;47.30;21.10;;;;;;;1.63;100.00;100716.10;107598;1267;61214;-71
2022/11/20 11:14:14;;;;;;;41.90;20.90;;;;;;;1.74;100.00;100700.42;107719;1259;60379;-71
2022/11/20 11:16:55;;;;;;;40.50;20.30;;;;;;;1.57;100.00;100675.29;107484;1264;73141;-71
2022/11/20 11:19:24;;;;;;;37.80;19.50;;;;;;;1.54;100.00;100682.76;107638;1257;61728;-70
2022/11/20 11:21:56;;;;;;;36.80;20.40;;;;;;;1.73;100.00;100679.15;107552;1260;70303;-69
2022/11/20 11:24:30;;;;;;;35.60;19.90;;;;;;;1.73;100.00;100660.81;107488;1270;73379;-72
2022/11/20 11:27:17;;;;;;;35.90;19.00;;;;;;;1.85;100.00;100662.08;107498;1260;62061;-71
2022/11/20 11:29:47;;;;;;;36.40;19.60;;;;;;;1.93;100.00;100662.45;107523;1258;60292;-72
2022/11/20 11:32:20;;;;;;;38.00;19.90;;;;;;;1.98;100.00;100666.05;107533;1270;64322;-74
2022/11/20 11:35:06;;;;;;;32.80;18.00;;;;;;;2.07;100.00;100683.08;107509;1263;61556;-72
2022/11/20 11:37:39;;;;;;;35.30;17.90;;;;;;;2.03;100.00;100704.34;107605;1263;70115;-72
2022/11/20 11:40:11;;;;;;;;;;;;;;;1.97;100.00;100701.66;107464;1261;74295;-73
2022/11/20 11:45:04;;;;;;;32.40;15.40;;;;;;;1.87;100.00;100704.92;107581;1260;57608;-71
2022/11/20 11:45:56;;;;;;;34.80;17.80;;;;;;;1.77;100.00;100691.73;107640;1267;60364;-73